Aérodrome :
LOGIN :

S'inscrire | Disclaimer

   EN    FR    IT 

 










Légende :    VFR   VFR Marginal   IFR   IFR Intensif   IFR Très Intensif
Visi : 
Plafond : 
>= 8 km
>= 3000ft
5 à 8 km
1000 à 3000 ft
1500m à 5 km
500 à 1000 ft
800 à 1500m
200 à 500 ft
< 800m
< 200 ft
Symboles :   Orages  Brouillard  Fortes neiges  Fortes précipitations  Vent > 20 kt
SIGMETs :   Divers  Orages  Givrage  Turbulence  Onde Orograph.  Cendres Volcan.







- Altitude de l'aérodrome : 1106 ft
- Voir les cartes d'approche


LFSO - Nancy / Ochey

DERNIER METAR :
  • 270400Z AUTO 11004KT CAVOK 14/11 Q1018

METARs EXPIRÉS :
  • 270330Z AUTO 12006KT CAVOK 15/11 Q1018
  • 270300Z AUTO 09004KT CAVOK 15/11 Q1018
  • 270230Z AUTO 09004KT CAVOK 15/11 Q1018
  • 270200Z AUTO 10005KT CAVOK 15/11 Q1017
  • 270130Z AUTO 09007KT CAVOK 16/11 Q1017

TAF TAF LFSO
Valide du 26 à 09h jusqu'au 27 à 09h UTC


260800Z 2609/2709 07015KT CAVOK
TEMPO 2610/2615 07015G25KT
BECMG 2623/2701 10005KT
Pas de NOTAMs connus pour ce terrain.



MET'MAP, la Météo Aéronautique d'un coup d'oeil ! - Copyright ORBIFLY Décembre 2007 - Disclaimer

ORBIFLY MET'MAP TEAM :

Programmation & Développement : Alexandra Zaïnal
Conception & Développement : Baudouin d'Aumeries
Co-Programmation & Développement : Marc-Olivier Méhu
Soutien technique & logistique : Manuel Goepfert

Contact : metmap@orbifly.com




SOURCES & CREDITS :

   NOAA